BRA141 ENSG-ENSD
Flight info
| Callsign | BRA141 |
|---|---|
| Flight time | 0h 18m |
| Altitude | 14000 |
| Route | EVNAN |
| Aircraft | B736/M-SDE2E3FGHIRWXY/LB1 |
Departure
| Time | 2026-04-23 13:30 |
|---|---|
| Airport | Sogndal Airport, Haukåsen (ENSG) |
Arrival
| Time | 2026-04-23 13:48 |
|---|---|
| Airport | Sandane Airport, Anda (ENSD) |
| Time | Latitude | Longitude | Altitude | Speed | Heading |
|---|---|---|---|---|---|
| 2026-04-23 13:22 | 61.15712 | 7.13731 | 1637 ft | 0 kts | 238° |
| 2026-04-23 13:27 | 61.15712 | 7.13730 | 1637 ft | 0 kts | 235° |
| 2026-04-23 13:27 | 61.15700 | 7.13752 | 1636 ft | 10 kts | 119° |
| 2026-04-23 13:28 | 61.15664 | 7.13925 | 1633 ft | 12 kts | 56° |
| 2026-04-23 13:28 | 61.15725 | 7.14131 | 1634 ft | 25 kts | 58° |
| 2026-04-23 13:28 | 61.15802 | 7.14407 | 1640 ft | 17 kts | 62° |
| 2026-04-23 13:28 | 61.15824 | 7.14493 | 1640 ft | 1 kts | 23° |
| 2026-04-23 13:29 | 61.15825 | 7.14468 | 1641 ft | 3 kts | 246° |
| 2026-04-23 13:29 | 61.15807 | 7.14429 | 1641 ft | 3 kts | 239° |
| 2026-04-23 13:29 | 61.15805 | 7.14424 | 1641 ft | 0 kts | 240° |
| 2026-04-23 13:29 | 61.15782 | 7.14339 | 1639 ft | 43 kts | 242° |
| 2026-04-23 13:30 | 61.15419 | 7.13128 | 1837 ft | 134 kts | 239° |
| 2026-04-23 13:30 | 61.14942 | 7.11636 | 3248 ft | 129 kts | 243° |
| 2026-04-23 13:30 | 61.14957 | 7.09426 | 3856 ft | 183 kts | 295° |
| 2026-04-23 13:30 | 61.15346 | 7.06916 | 5319 ft | 187 kts | 283° |
| 2026-04-23 13:31 | 61.15482 | 7.03918 | 6006 ft | 215 kts | 277° |
| 2026-04-23 13:31 | 61.15554 | 7.00811 | 7142 ft | 225 kts | 277° |
| 2026-04-23 13:31 | 61.15726 | 6.97328 | 7526 ft | 257 kts | 281° |
| 2026-04-23 13:31 | 61.15882 | 6.93622 | 9087 ft | 253 kts | 281° |
| 2026-04-23 13:32 | 61.16080 | 6.90310 | 11157 ft | 225 kts | 283° |
| 2026-04-23 13:32 | 61.16279 | 6.87088 | 12253 ft | 233 kts | 282° |
| 2026-04-23 13:32 | 61.16476 | 6.83515 | 12646 ft | 268 kts | 280° |
| 2026-04-23 13:32 | 61.16670 | 6.79431 | 12934 ft | 304 kts | 279° |
| 2026-04-23 13:33 | 61.17073 | 6.74941 | 13425 ft | 324 kts | 294° |
| 2026-04-23 13:33 | 61.18247 | 6.70996 | 14061 ft | 329 kts | 313° |
| 2026-04-23 13:33 | 61.20122 | 6.68207 | 14329 ft | 331 kts | 335° |
| 2026-04-23 13:33 | 61.22379 | 6.67281 | 14363 ft | 336 kts | 358° |
| 2026-04-23 13:34 | 61.24708 | 6.68052 | 14375 ft | 341 kts | 9° |
| 2026-04-23 13:34 | 61.26986 | 6.69223 | 14369 ft | 343 kts | 11° |
| 2026-04-23 13:34 | 61.29306 | 6.70487 | 14364 ft | 344 kts | 11° |
| 2026-04-23 13:34 | 61.31612 | 6.71744 | 14382 ft | 343 kts | 11° |
| 2026-04-23 13:35 | 61.33954 | 6.72992 | 14379 ft | 343 kts | 11° |
| 2026-04-23 13:35 | 61.36270 | 6.74212 | 14369 ft | 342 kts | 11° |
| 2026-04-23 13:35 | 61.38549 | 6.75408 | 14382 ft | 341 kts | 11° |
| 2026-04-23 13:35 | 61.40878 | 6.76622 | 14384 ft | 341 kts | 10° |
| 2026-04-23 13:36 | 61.43160 | 6.77794 | 14375 ft | 341 kts | 10° |
| 2026-04-23 13:36 | 61.45459 | 6.78978 | 14357 ft | 336 kts | 10° |
| 2026-04-23 13:36 | 61.47721 | 6.80158 | 13992 ft | 335 kts | 10° |
| 2026-04-23 13:36 | 61.49978 | 6.81332 | 13521 ft | 331 kts | 10° |
| 2026-04-23 13:37 | 61.52192 | 6.82485 | 13028 ft | 325 kts | 10° |
| 2026-04-23 13:37 | 61.54368 | 6.83617 | 12516 ft | 319 kts | 10° |
| 2026-04-23 13:37 | 61.56526 | 6.84393 | 11989 ft | 311 kts | 357° |
| 2026-04-23 13:37 | 61.58621 | 6.83722 | 11508 ft | 302 kts | 341° |
| 2026-04-23 13:38 | 61.60575 | 6.82196 | 11041 ft | 297 kts | 337° |
| 2026-04-23 13:38 | 61.62264 | 6.80736 | 10768 ft | 289 kts | 336° |
| 2026-04-23 13:38 | 61.64079 | 6.79144 | 10638 ft | 275 kts | 336° |
| 2026-04-23 13:38 | 61.65799 | 6.77646 | 10542 ft | 263 kts | 337° |
| 2026-04-23 13:39 | 61.67461 | 6.76208 | 10393 ft | 252 kts | 337° |
| 2026-04-23 13:39 | 61.69070 | 6.74823 | 10085 ft | 247 kts | 337° |
| 2026-04-23 13:39 | 61.70653 | 6.73470 | 9742 ft | 244 kts | 337° |
| 2026-04-23 13:39 | 61.72215 | 6.72139 | 9403 ft | 242 kts | 338° |
| 2026-04-23 13:40 | 61.73768 | 6.70815 | 9066 ft | 239 kts | 338° |
| 2026-04-23 13:40 | 61.75286 | 6.69522 | 8963 ft | 231 kts | 338° |
| 2026-04-23 13:40 | 61.76761 | 6.68267 | 8818 ft | 226 kts | 337° |
| 2026-04-23 13:40 | 61.78190 | 6.67048 | 8708 ft | 216 kts | 337° |
| 2026-04-23 13:41 | 61.79530 | 6.65906 | 8641 ft | 207 kts | 337° |
| 2026-04-23 13:41 | 61.80834 | 6.64790 | 8556 ft | 198 kts | 336° |
| 2026-04-23 13:41 | 61.82093 | 6.63710 | 8477 ft | 192 kts | 336° |
| 2026-04-23 13:41 | 61.83307 | 6.62646 | 8382 ft | 186 kts | 332° |
| 2026-04-23 13:42 | 61.84260 | 6.60804 | 8172 ft | 188 kts | 309° |
| 2026-04-23 13:42 | 61.85058 | 6.58588 | 7893 ft | 189 kts | 310° |
| 2026-04-23 13:42 | 61.85861 | 6.56384 | 7646 ft | 189 kts | 310° |
| 2026-04-23 13:42 | 61.86666 | 6.54164 | 7400 ft | 190 kts | 310° |
| 2026-04-23 13:43 | 61.87471 | 6.51938 | 7123 ft | 189 kts | 310° |
| 2026-04-23 13:43 | 61.88269 | 6.49726 | 6841 ft | 189 kts | 309° |
| 2026-04-23 13:43 | 61.88701 | 6.47106 | 6531 ft | 201 kts | 269° |
| 2026-04-23 13:43 | 61.88278 | 6.44212 | 6157 ft | 213 kts | 253° |
| 2026-04-23 13:44 | 61.87710 | 6.41171 | 5551 ft | 229 kts | 252° |
| 2026-04-23 13:44 | 61.87099 | 6.37955 | 4816 ft | 246 kts | 247° |
| 2026-04-23 13:44 | 61.86383 | 6.34652 | 4332 ft | 246 kts | 249° |
| 2026-04-23 13:44 | 61.85856 | 6.31330 | 3875 ft | 235 kts | 254° |
| 2026-04-23 13:45 | 61.85521 | 6.29092 | 3419 ft | 241 kts | 252° |
| 2026-04-23 13:45 | 61.84810 | 6.24621 | 2535 ft | 244 kts | 253° |
| 2026-04-23 13:45 | 61.84384 | 6.21239 | 2143 ft | 231 kts | 259° |
| 2026-04-23 13:45 | 61.84122 | 6.17997 | 1501 ft | 222 kts | 265° |
| 2026-04-23 13:46 | 61.84210 | 6.14913 | 1246 ft | 198 kts | 288° |
| 2026-04-23 13:46 | 61.84671 | 6.12436 | 1145 ft | 166 kts | 291° |
| 2026-04-23 13:46 | 61.85007 | 6.10249 | 1031 ft | 149 kts | 285° |
| 2026-04-23 13:46 | 61.85175 | 6.08224 | 897 ft | 129 kts | 266° |
| 2026-04-23 13:47 | 61.84791 | 6.06739 | 803 ft | 115 kts | 212° |
| 2026-04-23 13:47 | 61.83962 | 6.06614 | 704 ft | 127 kts | 172° |
| 2026-04-23 13:47 | 61.83206 | 6.07487 | 590 ft | 130 kts | 125° |
| 2026-04-23 13:47 | 61.82973 | 6.09269 | 314 ft | 127 kts | 87° |
| 2026-04-23 13:48 | 61.83023 | 6.10855 | 181 ft | 57 kts | 85° |
| 2026-04-23 13:48 | 61.83042 | 6.11399 | 194 ft | 30 kts | 90° |
| 2026-04-23 13:48 | 61.83055 | 6.11586 | 199 ft | 1 kts | 7° |
| 2026-04-23 13:48 | 61.83057 | 6.11558 | 202 ft | 2 kts | 259° |
| 2026-04-23 13:49 | 61.83053 | 6.11519 | 205 ft | 4 kts | 258° |
| 2026-04-23 13:49 | 61.83046 | 6.11432 | 188 ft | 9 kts | 262° |
| 2026-04-23 13:49 | 61.83041 | 6.11334 | 189 ft | 11 kts | 264° |
| 2026-04-23 13:49 | 61.83034 | 6.11155 | 181 ft | 12 kts | 263° |
| 2026-04-23 13:50 | 61.83026 | 6.10977 | 181 ft | 12 kts | 266° |
| 2026-04-23 13:50 | 61.83009 | 6.10816 | 181 ft | 11 kts | 216° |
| 2026-04-23 13:50 | 61.82936 | 6.10759 | 201 ft | 8 kts | 268° |
| 2026-04-23 13:50 | 61.82936 | 6.10749 | 200 ft | 0 kts | 268° |